Pottstown, Pennsylvania
Current Conditions -  °F | °C
As of 10:54 AM on Sunday 23 Nov 2014 (Local Time) from KPTW Reporting Station
Clear Clear  
Wind Chill: 49°   Ceiling: Unl
Heat Index: 49°   Visibility: 10mi
Dew Point: 23°   Wind: 3mph
Humidity: 36%   Direction: 290°WNW
Pressure: 30.2"   Gusts: NA
Location:  40.25°N, 75.65°W
Report Text: KPTW 231554Z AUTO 29003KT 10SM CLR 09/M05 A3020 RMK AO2 SLP225 T00941050
Loading
Personal Weather Stations






























Interactive Weather Map New forecast layout! Learn more

10-Day Weather Forecast

Advertisements
Track Severe Weather on mobile